createdAt,value
2017-07-16T00:01:31.016Z,11.35
2017-07-16T00:03:57.058Z,11.75
2017-07-16T00:06:23.100Z,10.75
2017-07-16T00:09:04.115Z,12.70
2017-07-16T00:11:30.918Z,9.60
2017-07-16T00:13:56.975Z,10.38
2017-07-16T00:16:23.032Z,7.60
2017-07-16T00:18:49.099Z,9.90
2017-07-16T00:21:15.154Z,11.60
2017-07-16T00:23:41.202Z,10.93
2017-07-16T00:26:08.003Z,10.52
2017-07-16T00:28:34.048Z,10.57
2017-07-16T00:31:00.118Z,10.45
2017-07-16T00:33:26.171Z,11.85
2017-07-16T00:35:52.230Z,9.00
2017-07-16T00:38:18.291Z,7.90
2017-07-16T00:40:44.332Z,11.15
2017-07-16T00:43:10.394Z,11.00
2017-07-16T00:45:36.450Z,11.12
2017-07-16T00:48:02.509Z,10.73
2017-07-16T00:50:28.558Z,10.18
2017-07-16T00:52:54.602Z,10.88
2017-07-16T00:55:20.672Z,10.70
2017-07-16T00:57:46.720Z,11.60
2017-07-16T01:00:12.770Z,10.90
2017-07-16T01:02:38.835Z,12.40
2017-07-16T01:05:04.883Z,12.27
2017-07-16T01:07:30.927Z,12.02
2017-07-16T01:09:56.982Z,12.75
2017-07-16T01:12:23.033Z,11.93
2017-07-16T01:14:49.855Z,11.02
2017-07-16T01:52:46.587Z,11.48
2017-07-16T01:55:12.662Z,11.98
2017-07-16T01:57:38.715Z,12.32
2017-07-16T02:00:05.494Z,12.93
2017-07-16T02:02:31.559Z,11.75
2017-07-16T02:04:57.628Z,13.10
2017-07-16T02:07:23.670Z,12.93
2017-07-16T02:09:49.734Z,10.85
2017-07-16T02:12:15.790Z,11.88
2017-07-16T02:14:42.571Z,11.90
2017-07-16T02:17:08.616Z,12.60
2017-07-16T02:19:34.665Z,11.55
2017-07-16T02:22:00.726Z,13.00
2017-07-16T02:24:26.770Z,11.65
2017-07-16T02:26:52.819Z,12.37
2017-07-16T02:29:18.863Z,12.25
2017-07-16T02:31:44.910Z,12.37
2017-07-16T02:34:10.942Z,10.63
2017-07-16T02:36:37.739Z,10.70
2017-07-16T02:39:03.810Z,12.20
2017-07-16T02:41:29.851Z,11.40
2017-07-16T02:43:55.919Z,11.55
2017-07-16T02:46:21.962Z,10.90
2017-07-16T02:48:48.010Z,11.02
2017-07-16T02:51:14.807Z,10.57
2017-07-16T02:53:40.847Z,11.02
2017-07-16T02:56:06.899Z,9.90
2017-07-16T02:58:32.947Z,10.48
2017-07-16T03:00:58.986Z,12.07
2017-07-16T03:03:25.041Z,10.23
2017-07-16T03:05:51.103Z,9.50
2017-07-16T03:08:17.147Z,10.30
2017-07-16T03:10:43.203Z,10.52
2017-07-16T03:13:09.246Z,10.27
2017-07-16T03:15:35.291Z,11.77
2017-07-16T03:18:01.339Z,9.95
2017-07-16T03:20:27.400Z,7.62
2017-07-16T03:22:53.444Z,8.68
2017-07-16T03:25:31.862Z,8.30
2017-07-16T03:27:57.908Z,9.82
2017-07-16T03:30:23.955Z,9.60
2017-07-16T03:32:50.014Z,12.00
2017-07-16T03:35:16.067Z,11.38
2017-07-16T03:37:42.118Z,10.55
2017-07-16T03:40:08.171Z,9.52
2017-07-16T03:42:34.214Z,12.82
2017-07-16T03:45:00.257Z,9.80
2017-07-16T03:47:26.308Z,8.93
2017-07-16T03:49:52.355Z,10.48
2017-07-16T03:52:19.134Z,10.00
2017-07-16T03:54:45.220Z,15.48
2017-07-16T03:57:11.270Z,9.80
2017-07-16T03:59:37.314Z,10.07
2017-07-16T04:02:18.319Z,10.93
2017-07-16T04:04:44.379Z,9.05
2017-07-16T04:07:10.427Z,7.85
2017-07-16T04:09:36.466Z,10.50
2017-07-16T04:12:02.506Z,12.43
2017-07-16T04:14:28.547Z,11.20
2017-07-16T04:16:54.606Z,11.85
2017-07-16T04:19:20.637Z,7.68
2017-07-16T04:21:47.441Z,12.35
2017-07-16T04:24:13.494Z,12.13
2017-07-16T04:26:39.535Z,10.80
2017-07-16T04:29:05.591Z,17.85
2017-07-16T04:31:31.640Z,11.00
2017-07-16T04:33:57.691Z,11.63
2017-07-16T04:36:24.500Z,11.70
2017-07-16T04:38:50.562Z,11.40
2017-07-16T04:41:16.619Z,11.73
2017-07-16T04:43:42.663Z,12.37
2017-07-16T04:46:40.514Z,11.45
2017-07-16T04:49:07.326Z,12.15
2017-07-16T04:51:33.374Z,9.93
2017-07-16T04:53:59.437Z,12.73
2017-07-16T04:56:25.495Z,12.70
2017-07-16T04:58:51.570Z,12.45
2017-07-16T05:01:24.520Z,15.05
2017-07-16T05:03:50.610Z,12.77
2017-07-16T05:06:16.662Z,12.50
2017-07-16T05:08:42.711Z,13.07
2017-07-16T05:11:09.519Z,13.65
2017-07-16T05:13:35.577Z,12.63
2017-07-16T05:16:01.647Z,8.35
2017-07-16T05:18:28.256Z,12.23
2017-07-16T05:20:54.333Z,9.07
2017-07-16T05:23:20.386Z,6.75
2017-07-16T05:25:46.438Z,9.25
2017-07-16T05:28:12.497Z,7.28
2017-07-16T05:30:38.544Z,11.15
2017-07-16T05:33:04.607Z,13.52
2017-07-16T05:35:30.690Z,9.30
2017-07-16T05:37:56.756Z,8.90
2017-07-16T05:40:22.843Z,8.45
2017-07-16T05:42:48.919Z,8.80
2017-07-16T05:45:14.977Z,6.90
2017-07-16T05:47:41.043Z,10.80
2017-07-16T05:50:07.102Z,11.55
2017-07-16T05:52:33.898Z,10.82
2017-07-16T05:54:59.955Z,12.50
2017-07-16T05:57:26.010Z,9.35
2017-07-16T05:59:52.085Z,7.65
2017-07-16T06:02:18.140Z,7.55
2017-07-16T06:04:44.221Z,10.70
2017-07-16T06:07:11.213Z,7.65
2017-07-16T06:09:37.266Z,11.75
2017-07-16T06:12:03.309Z,9.82
2017-07-16T06:14:29.369Z,9.93
2017-07-16T06:16:55.426Z,10.48
2017-07-16T06:19:21.499Z,6.55
2017-07-16T06:21:47.572Z,11.65
2017-07-16T06:24:13.647Z,9.43
2017-07-16T06:26:39.703Z,7.45
2017-07-16T06:29:05.758Z,7.22
2017-07-16T06:31:31.831Z,8.88
2017-07-16T06:33:57.879Z,8.63
2017-07-16T06:36:23.920Z,8.63
2017-07-16T06:38:50.724Z,9.15
2017-07-16T06:41:16.764Z,9.07
2017-07-16T06:43:42.807Z,8.52
2017-07-16T06:46:08.851Z,8.30
2017-07-16T06:48:35.640Z,10.15
2017-07-16T06:51:01.674Z,9.07
2017-07-16T06:53:27.718Z,8.82
2017-07-16T06:55:53.771Z,7.93
2017-07-16T06:58:20.561Z,5.90
2017-07-16T07:00:46.625Z,6.75
2017-07-16T07:03:12.675Z,7.82
2017-07-16T07:05:38.711Z,8.73
2017-07-16T07:08:04.760Z,7.72
2017-07-16T07:10:30.819Z,6.05
2017-07-16T07:12:56.851Z,6.15
2017-07-16T07:15:22.887Z,6.95
2017-07-16T07:17:48.935Z,6.53
2017-07-16T07:20:14.995Z,4.60
2017-07-16T07:22:41.043Z,5.60
2017-07-16T07:25:07.090Z,7.20
2017-07-16T07:27:33.150Z,7.07
2017-07-16T07:29:59.199Z,11.75
2017-07-16T07:32:25.251Z,8.57
2017-07-16T07:35:06.259Z,6.93
2017-07-16T07:37:32.303Z,5.97
2017-07-16T07:39:58.367Z,8.35
2017-07-16T07:42:24.419Z,7.47
2017-07-16T07:44:51.199Z,6.45
2017-07-16T07:47:17.238Z,5.20
2017-07-16T07:49:43.290Z,6.32
2017-07-16T07:52:09.327Z,5.25
2017-07-16T07:54:35.374Z,6.68
2017-07-16T07:57:01.428Z,5.20
2017-07-16T07:59:27.487Z,6.82
2017-07-16T08:01:53.547Z,4.65
2017-07-16T08:04:19.590Z,4.90
2017-07-16T08:06:45.635Z,4.97
2017-07-16T08:09:11.691Z,5.62
2017-07-16T08:11:37.734Z,5.90
2017-07-16T08:14:03.794Z,5.30
2017-07-16T08:16:29.866Z,7.53
2017-07-16T08:18:55.909Z,4.18
2017-07-16T08:21:21.986Z,4.70
2017-07-16T08:24:02.990Z,4.75
2017-07-16T08:26:29.030Z,5.80
2017-07-16T08:29:10.063Z,5.00
2017-07-16T08:31:36.109Z,5.57
2017-07-16T08:34:02.154Z,3.95
2017-07-16T08:36:28.224Z,5.47
2017-07-16T08:38:54.283Z,5.28
2017-07-16T08:41:20.328Z,4.65
2017-07-16T08:43:46.421Z,5.10
2017-07-16T08:46:12.502Z,4.43
2017-07-16T08:48:38.559Z,4.30
2017-07-16T08:51:04.624Z,3.95
2017-07-16T08:53:30.671Z,5.15
2017-07-16T08:55:56.714Z,4.82
2017-07-16T08:58:22.772Z,3.45
2017-07-16T09:00:48.827Z,4.72
2017-07-16T09:03:14.901Z,4.30
2017-07-16T09:05:56.638Z,16.08
2017-07-16T09:08:22.686Z,3.33
2017-07-16T09:10:48.729Z,4.03
2017-07-16T09:13:14.774Z,3.60
2017-07-16T09:15:40.819Z,3.58
2017-07-16T09:18:06.870Z,4.53
2017-07-16T09:20:32.920Z,3.58
2017-07-16T09:22:58.977Z,3.90
2017-07-16T09:25:39.987Z,3.60
2017-07-16T09:28:06.035Z,5.00
2017-07-16T09:30:32.076Z,3.50
2017-07-16T09:32:58.148Z,3.33
2017-07-16T09:35:24.207Z,3.28
2017-07-16T09:37:50.262Z,4.18
2017-07-16T09:40:16.346Z,3.37
2017-07-16T09:42:42.416Z,3.22
2017-07-16T09:45:08.536Z,4.15
2017-07-16T09:47:34.597Z,2.80
2017-07-16T09:50:00.654Z,3.22
2017-07-16T09:52:26.700Z,3.00
2017-07-16T09:54:52.755Z,3.65
2017-07-16T09:57:18.809Z,3.03
2017-07-16T09:59:44.867Z,4.32
2017-07-16T10:02:10.930Z,2.78
2017-07-16T10:04:37.003Z,2.97
2017-07-16T10:07:03.058Z,3.45
2017-07-16T10:09:29.126Z,2.95
2017-07-16T10:11:55.171Z,4.53
2017-07-16T10:14:21.236Z,2.28
2017-07-16T10:16:47.307Z,2.60
2017-07-16T10:19:13.379Z,2.83
2017-07-16T10:21:39.438Z,3.20
2017-07-16T10:24:06.238Z,2.50
2017-07-16T10:26:32.299Z,3.15
2017-07-16T10:28:58.355Z,2.60
2017-07-16T10:31:24.425Z,3.45
2017-07-16T10:33:50.533Z,2.50
2017-07-16T10:36:16.603Z,3.33
2017-07-16T10:38:42.647Z,3.10
2017-07-16T10:41:08.731Z,2.92
2017-07-16T10:43:34.782Z,2.92
2017-07-16T10:46:00.839Z,2.75
2017-07-16T10:48:26.886Z,2.70
2017-07-16T10:50:52.935Z,2.62
2017-07-16T10:53:18.987Z,2.53
2017-07-16T10:55:45.042Z,3.83
2017-07-16T10:58:11.113Z,5.03
2017-07-16T11:00:37.173Z,2.80
2017-07-16T11:03:03.224Z,3.20
2017-07-16T11:05:29.277Z,3.17
2017-07-16T11:07:55.333Z,2.15
2017-07-16T11:10:21.395Z,3.15
2017-07-16T11:12:47.454Z,3.12
2017-07-16T11:15:13.505Z,3.03
2017-07-16T11:17:39.557Z,3.95
2017-07-16T11:20:05.602Z,3.78
2017-07-16T11:22:31.659Z,3.05
2017-07-16T11:24:57.710Z,2.75
2017-07-16T11:27:23.758Z,2.60
2017-07-16T11:29:49.823Z,3.05
2017-07-16T11:32:15.885Z,2.65
2017-07-16T11:34:41.926Z,2.78
2017-07-16T11:37:07.987Z,2.60
2017-07-16T11:39:34.058Z,2.65
2017-07-16T11:42:00.094Z,2.83
2017-07-16T11:44:26.160Z,4.12
2017-07-16T11:46:52.260Z,2.65
2017-07-16T11:49:18.315Z,2.92
2017-07-16T11:51:44.377Z,3.08
2017-07-16T11:54:10.435Z,2.42
2017-07-16T11:56:36.481Z,5.62
2017-07-16T11:59:02.578Z,5.25
2017-07-16T12:01:28.665Z,2.95
2017-07-16T12:03:54.711Z,3.00
2017-07-16T12:06:20.771Z,2.90
2017-07-16T12:08:46.837Z,2.78
2017-07-16T12:11:12.900Z,3.30
2017-07-16T12:13:38.960Z,3.03
2017-07-16T12:16:05.760Z,2.80
2017-07-16T12:18:32.278Z,2.72
2017-07-16T12:20:58.347Z,2.80
2017-07-16T12:23:24.406Z,2.70
2017-07-16T12:25:50.458Z,3.10
2017-07-16T12:28:16.510Z,2.90
2017-07-16T12:30:42.554Z,3.20
2017-07-16T12:33:08.596Z,3.07
2017-07-16T12:35:34.663Z,2.83
2017-07-16T12:38:00.714Z,2.47
2017-07-16T12:40:26.760Z,3.60
2017-07-16T12:42:52.805Z,3.00
2017-07-16T12:45:19.597Z,3.23
2017-07-16T12:47:45.660Z,2.93
2017-07-16T12:50:11.730Z,3.93
2017-07-16T12:52:37.774Z,3.00
2017-07-16T12:55:03.814Z,3.07
2017-07-16T12:57:29.875Z,2.30
2017-07-16T12:59:55.930Z,2.90
2017-07-16T13:02:21.967Z,2.87
2017-07-16T13:04:48.010Z,4.17
2017-07-16T13:07:14.047Z,2.23
2017-07-16T13:09:40.114Z,3.00
2017-07-16T13:12:06.178Z,3.03
2017-07-16T13:14:32.223Z,2.87
2017-07-16T13:16:59.059Z,2.60
2017-07-16T13:19:25.112Z,2.77
2017-07-16T13:21:51.184Z,3.43
2017-07-16T13:24:17.228Z,2.60
2017-07-16T13:26:43.266Z,5.43
2017-07-16T13:29:09.319Z,2.43
2017-07-16T13:31:36.102Z,2.50
2017-07-16T13:34:02.150Z,2.50
2017-07-16T13:36:28.203Z,2.50
2017-07-16T13:38:54.282Z,4.23
2017-07-16T13:41:20.339Z,2.10
2017-07-16T13:43:46.382Z,2.80
2017-07-16T13:46:12.430Z,4.33
2017-07-16T13:48:38.484Z,2.87
2017-07-16T13:51:04.539Z,2.30
2017-07-16T13:53:30.584Z,2.90
2017-07-16T13:55:56.649Z,2.30
2017-07-16T13:58:22.691Z,2.50
2017-07-16T14:00:48.734Z,2.60
2017-07-16T14:03:14.786Z,2.93
2017-07-16T14:05:40.851Z,2.30
2017-07-16T14:08:06.898Z,2.67
2017-07-16T14:10:32.951Z,2.60
2017-07-16T14:12:59.007Z,3.00
2017-07-16T14:15:25.807Z,2.40
2017-07-16T14:17:51.870Z,2.77
2017-07-16T14:20:17.919Z,2.53
2017-07-16T14:22:43.958Z,2.57
2017-07-16T14:25:10.008Z,2.33
2017-07-16T14:27:36.054Z,2.50
2017-07-16T14:30:02.102Z,2.50
2017-07-16T14:32:28.186Z,2.10
2017-07-16T14:34:54.238Z,2.47
2017-07-16T14:37:20.310Z,2.57
2017-07-16T14:39:46.375Z,2.10
2017-07-16T14:42:12.429Z,6.20
2017-07-16T14:44:38.491Z,2.73
2017-07-16T14:47:04.530Z,2.80
2017-07-16T14:49:30.581Z,2.60
2017-07-16T14:51:56.650Z,3.57
2017-07-16T14:54:22.703Z,2.60
2017-07-16T14:56:48.778Z,2.63
2017-07-16T14:59:14.834Z,2.47
2017-07-16T15:01:40.892Z,2.33
2017-07-16T15:04:06.939Z,2.37
2017-07-16T15:06:32.998Z,2.67
2017-07-16T15:08:59.075Z,3.47
2017-07-16T15:11:25.140Z,3.07
2017-07-16T15:13:51.944Z,2.33
2017-07-16T15:16:17.994Z,3.80
2017-07-16T15:18:44.047Z,2.60
2017-07-16T15:21:10.107Z,4.53
2017-07-16T15:23:36.950Z,3.10
2017-07-16T15:26:03.007Z,3.33
2017-07-16T15:28:29.063Z,2.57
2017-07-16T15:30:55.875Z,3.23
2017-07-16T15:33:21.926Z,2.83
2017-07-16T15:35:48.351Z,2.40
2017-07-16T15:38:14.402Z,2.90
2017-07-16T15:40:40.467Z,2.30
2017-07-16T15:43:06.530Z,2.97
2017-07-16T15:45:32.611Z,4.28
2017-07-16T15:47:58.684Z,3.03
2017-07-16T15:50:24.743Z,3.77
2017-07-16T15:52:50.806Z,3.20
2017-07-16T15:55:16.862Z,2.17
2017-07-16T15:57:42.923Z,2.77
2017-07-16T16:00:08.985Z,2.87
2017-07-16T16:02:49.986Z,4.50
2017-07-16T16:05:16.047Z,3.10
2017-07-16T16:07:42.107Z,2.33
2017-07-16T16:10:08.159Z,5.60
2017-07-16T16:12:34.219Z,2.60
2017-07-16T16:15:00.288Z,2.10
2017-07-16T16:17:26.344Z,4.63
2017-07-16T16:19:52.399Z,2.67
2017-07-16T16:22:18.459Z,2.00
2017-07-16T16:24:44.503Z,2.23
2017-07-16T16:27:10.610Z,3.37
2017-07-16T16:29:36.663Z,2.50
2017-07-16T16:32:02.722Z,2.67
2017-07-16T16:34:28.785Z,2.40
2017-07-16T16:36:54.862Z,3.10
2017-07-16T16:39:21.671Z,1.80
2017-07-16T16:41:47.723Z,4.65
2017-07-16T16:44:13.796Z,2.87
2017-07-16T16:46:39.848Z,3.13
2017-07-16T16:49:05.894Z,4.00
2017-07-16T16:51:31.964Z,4.33
2017-07-16T16:53:58.042Z,2.97
2017-07-16T16:56:24.111Z,2.17
2017-07-16T16:58:50.174Z,2.17
2017-07-16T17:01:16.240Z,2.13
2017-07-16T17:03:43.060Z,1.83
2017-07-16T17:06:09.131Z,2.20
2017-07-16T17:08:35.195Z,3.22
2017-07-16T17:11:01.250Z,3.20
2017-07-16T17:13:27.306Z,3.53
2017-07-16T17:15:53.367Z,2.17
2017-07-16T17:18:19.403Z,2.93
2017-07-16T17:20:45.478Z,2.17
2017-07-16T17:23:12.274Z,2.33
2017-07-16T17:25:38.318Z,2.47
2017-07-16T17:28:04.382Z,2.13
2017-07-16T17:30:30.518Z,2.83
2017-07-16T17:32:56.577Z,2.07
2017-07-16T17:35:22.646Z,1.90
2017-07-16T17:37:48.702Z,4.07
2017-07-16T17:40:14.770Z,2.62
2017-07-16T17:42:40.837Z,2.12
2017-07-16T17:45:21.868Z,2.10
2017-07-16T17:47:47.922Z,1.70
2017-07-16T17:50:13.988Z,2.80
2017-07-16T17:52:40.067Z,2.80
2017-07-16T17:55:06.128Z,3.33
2017-07-16T17:57:32.207Z,2.40
2017-07-16T17:59:58.291Z,3.15
2017-07-16T18:02:24.355Z,2.58
2017-07-16T18:04:50.450Z,1.77
2017-07-16T18:07:16.542Z,4.90
2017-07-16T18:09:42.622Z,2.07
2017-07-16T18:12:08.691Z,2.53
2017-07-16T18:14:34.762Z,2.15
2017-07-16T18:17:00.830Z,2.00
2017-07-16T18:19:26.896Z,2.15
2017-07-16T18:21:53.814Z,1.50
2017-07-16T18:24:20.654Z,2.30
2017-07-16T18:26:47.458Z,2.03
2017-07-16T18:29:13.506Z,2.50
2017-07-16T18:31:39.570Z,1.98
2017-07-16T18:34:05.622Z,2.10
2017-07-16T18:36:31.690Z,1.87
2017-07-16T18:38:57.756Z,2.00
2017-07-16T18:41:23.803Z,2.67
2017-07-16T18:43:49.858Z,5.40
2017-07-16T18:46:30.875Z,1.83
2017-07-16T18:48:56.934Z,2.10
2017-07-16T18:51:23.011Z,2.60
2017-07-16T18:53:49.814Z,3.30
2017-07-16T18:56:15.859Z,2.50
2017-07-16T18:58:41.927Z,2.10
2017-07-16T19:01:07.995Z,2.07
2017-07-16T19:03:49.019Z,3.55
2017-07-16T19:06:30.057Z,1.65
2017-07-16T19:08:56.128Z,4.22
2017-07-16T19:11:22.196Z,3.28
2017-07-16T19:13:48.266Z,2.97
2017-07-16T19:16:15.071Z,2.90
2017-07-16T19:18:41.137Z,2.25
2017-07-16T19:21:07.182Z,2.55
2017-07-16T19:23:33.240Z,2.35
2017-07-16T19:25:59.299Z,2.22
2017-07-16T19:28:25.362Z,2.47
2017-07-16T19:30:51.458Z,2.28
2017-07-16T19:33:17.510Z,3.87
2017-07-16T19:35:43.573Z,2.03
2017-07-16T19:38:09.627Z,2.30
2017-07-16T19:40:36.442Z,2.20
2017-07-16T19:43:02.512Z,2.95
2017-07-16T19:45:28.586Z,1.85
2017-07-16T19:47:54.646Z,2.10
2017-07-16T19:50:20.713Z,2.40
2017-07-16T19:52:46.807Z,2.53
2017-07-16T19:55:12.862Z,2.00
2017-07-16T19:57:38.918Z,2.80
2017-07-16T20:00:05.319Z,2.30
2017-07-16T20:02:31.439Z,2.45
2017-07-16T20:04:57.500Z,2.40
2017-07-16T20:07:23.590Z,1.95
2017-07-16T20:09:49.651Z,2.03
2017-07-16T20:12:15.720Z,2.50
2017-07-16T20:14:41.779Z,2.40
2017-07-16T20:17:07.845Z,1.92
2017-07-16T20:19:33.914Z,1.90
2017-07-16T20:21:59.979Z,2.00
2017-07-16T20:24:26.042Z,3.37
2017-07-16T20:26:52.107Z,3.47
2017-07-16T20:29:18.175Z,3.03
2017-07-16T20:31:44.238Z,2.03
2017-07-16T20:34:11.049Z,3.35
2017-07-16T20:36:37.110Z,3.08
2017-07-16T20:39:03.215Z,2.92
2017-07-16T20:41:29.275Z,2.30
2017-07-16T20:43:55.335Z,2.70
2017-07-16T20:46:21.388Z,2.90
2017-07-16T20:48:47.435Z,2.92
2017-07-16T20:51:13.487Z,2.90
2017-07-16T20:53:39.557Z,4.55
2017-07-16T20:56:05.608Z,2.60
2017-07-16T20:58:32.406Z,3.65
2017-07-16T21:00:58.473Z,4.60
2017-07-16T21:03:24.533Z,3.67
2017-07-16T21:05:50.607Z,4.47
2017-07-16T21:08:16.665Z,3.35
2017-07-16T21:10:42.732Z,3.47
2017-07-16T21:13:08.788Z,3.65
2017-07-16T21:15:34.837Z,3.78
2017-07-16T21:18:01.626Z,3.55
2017-07-16T21:20:27.692Z,4.50
2017-07-16T21:22:53.738Z,3.72
2017-07-16T21:25:19.787Z,3.90
2017-07-16T21:27:45.835Z,3.70
2017-07-16T21:30:11.895Z,4.03
2017-07-16T21:32:37.950Z,3.78
2017-07-16T21:35:04.023Z,4.12
2017-07-16T21:37:30.083Z,3.03
2017-07-16T21:39:56.143Z,2.72
2017-07-16T21:42:22.207Z,3.45
2017-07-16T21:44:48.263Z,3.25
2017-07-16T21:47:14.322Z,2.40
2017-07-16T21:49:40.387Z,3.20
2017-07-16T21:52:06.435Z,3.00
2017-07-16T21:54:32.495Z,2.80
2017-07-16T21:56:58.563Z,2.67
2017-07-16T21:59:24.643Z,3.92
2017-07-16T22:01:50.701Z,3.72
2017-07-16T22:04:16.784Z,2.95
2017-07-16T22:06:42.858Z,2.75
2017-07-16T22:09:08.915Z,3.65
2017-07-16T22:11:34.983Z,3.00
2017-07-16T22:14:16.039Z,3.05
2017-07-16T22:16:42.844Z,5.62
2017-07-16T22:19:08.902Z,4.10
2017-07-16T22:21:34.976Z,3.90
2017-07-16T22:24:01.043Z,3.40
2017-07-16T22:26:27.107Z,3.72
2017-07-16T22:28:53.175Z,5.20
2017-07-16T22:31:19.231Z,3.65
2017-07-16T22:33:45.290Z,3.20
2017-07-16T22:36:11.335Z,3.55
2017-07-16T22:38:37.425Z,3.50
2017-07-16T22:41:03.454Z,3.40
2017-07-16T22:43:29.511Z,3.53
2017-07-16T22:45:55.572Z,3.03
2017-07-16T22:48:21.627Z,3.45
2017-07-16T22:50:47.683Z,3.30
2017-07-16T22:53:13.723Z,3.35
2017-07-16T22:55:39.770Z,3.65
2017-07-16T22:58:05.828Z,3.10
2017-07-16T23:00:31.887Z,7.10
2017-07-16T23:02:57.938Z,3.40
2017-07-16T23:05:23.996Z,3.30
2017-07-16T23:07:50.080Z,3.40
2017-07-16T23:10:16.128Z,3.47
2017-07-16T23:12:42.174Z,4.00
2017-07-16T23:15:08.964Z,3.62
2017-07-16T23:17:35.027Z,3.40
2017-07-16T23:20:01.080Z,4.75
2017-07-16T23:22:32.122Z,4.43
2017-07-16T23:24:58.168Z,4.78
2017-07-16T23:27:24.230Z,3.00
2017-07-16T23:29:50.279Z,4.20
2017-07-16T23:32:16.360Z,5.30
2017-07-16T23:34:42.415Z,3.28
2017-07-16T23:37:08.467Z,7.37
2017-07-16T23:39:35.277Z,3.37
2017-07-16T23:42:01.326Z,2.80
2017-07-16T23:44:27.391Z,5.50
2017-07-16T23:46:53.456Z,3.62
2017-07-16T23:49:19.519Z,3.00
2017-07-16T23:51:45.575Z,3.78
2017-07-16T23:54:11.708Z,3.30
2017-07-16T23:56:37.757Z,3.70
2017-07-16T23:59:03.803Z,3.80
